Time;durP1;ratioP1;P1;durP2;ratioP2;P2;SDS_P1;SDS_P2;PMS_P1;PMS_P2;Temp;Humidity;BMP_temperature;BMP_pressure;BME280_temperature;BME280_humidity;BME280_pressure;Samples;Min_cycle;Max_cycle;Signal;HPM_P1;HPM_P2
2023/07/02 00:01:40;;;;;;;21.85;20.00;;;25.30;1.00;;;;;;5051237;28;20381;-58
2023/07/02 00:04:08;;;;;;;20.35;18.50;;;25.40;1.00;;;;;;5052282;28;20045;-57
2023/07/02 00:06:40;;;;;;;21.33;19.23;;;25.40;1.00;;;;;;5048228;28;20529;-57
2023/07/02 00:09:06;;;;;;;22.73;20.60;;;25.40;1.00;;;;;;5050981;28;20049;-57
2023/07/02 00:11:31;;;;;;;22.63;20.63;;;25.40;1.00;;;;;;5052015;28;20032;-58
2023/07/02 00:13:57;;;;;;;23.35;20.85;;;25.20;1.00;;;;;;5050992;28;20033;-58
2023/07/02 00:16:23;;;;;;;21.73;19.85;;;25.10;1.00;;;;;;5051828;28;20056;-58
2023/07/02 00:18:52;;;;;;;23.45;21.55;;;25.10;1.00;;;;;;5050672;28;20158;-57
2023/07/02 00:21:19;;;;;;;23.27;21.17;;;25.10;1.00;;;;;;5051003;28;20033;-57
2023/07/02 00:23:44;;;;;;;24.65;22.55;;;25.10;1.00;;;;;;5050065;28;20031;-58
2023/07/02 00:26:10;;;;;;;25.48;22.88;;;25.10;1.00;;;;;;5051721;28;20021;-57
2023/07/02 00:28:36;;;;;;;24.30;22.00;;;25.10;1.00;;;;;;5049438;28;20041;-58
2023/07/02 00:31:02;;;;;;;24.23;22.20;;;25.10;1.00;;;;;;5049862;28;20477;-57
2023/07/02 00:33:28;;;;;;;22.35;20.55;;;25.10;1.00;;;;;;5051860;28;20067;-57
2023/07/02 00:35:54;;;;;;;22.80;20.83;;;25.10;1.00;;;;;;5051508;28;20036;-57
2023/07/02 00:38:21;;;;;;;21.77;19.88;;;25.10;1.00;;;;;;5050256;28;20066;-57
2023/07/02 00:40:47;;;;;;;19.40;17.77;;;25.00;1.00;;;;;;5051471;28;20102;-57
2023/07/02 00:43:13;;;;;;;18.63;17.02;;;25.00;1.00;;;;;;5045944;28;20767;-56
2023/07/02 00:45:41;;;;;;;18.50;17.00;;;25.00;1.00;;;;;;5046863;28;20471;-58
2023/07/02 00:48:07;;;;;;;18.42;16.80;;;24.90;1.00;;;;;;5032690;28;20121;-58
2023/07/02 00:50:33;;;;;;;19.33;17.63;;;24.90;1.00;;;;;;5045258;28;20501;-55
2023/07/02 00:52:58;;;;;;;19.55;17.75;;;25.00;1.00;;;;;;5040009;28;20036;-56
2023/07/02 00:55:24;;;;;;;20.38;18.58;;;24.90;1.00;;;;;;5051414;28;20025;-56
2023/07/02 00:57:50;;;;;;;20.42;18.55;;;24.90;1.00;;;;;;5048815;28;20037;-56
2023/07/02 01:00:16;;;;;;;22.00;20.10;;;24.90;1.00;;;;;;5048855;28;20401;-57
2023/07/02 01:02:43;;;;;;;21.08;19.33;;;24.90;1.00;;;;;;5048715;28;20025;-57
2023/07/02 01:05:16;;;;;;;19.50;17.58;;;24.80;1.00;;;;;;5050889;28;20056;-55
2023/07/02 01:07:42;;;;;;;20.75;18.83;;;24.80;1.00;;;;;;5047343;28;20620;-57
2023/07/02 01:10:08;;;;;;;22.02;19.83;;;24.80;1.00;;;;;;5050775;28;20095;-58
2023/07/02 01:12:36;;;;;;;20.75;19.02;;;24.80;1.00;;;;;;5050233;28;20025;-57
2023/07/02 01:15:04;;;;;;;18.70;16.85;;;24.80;1.00;;;;;;5046258;28;20033;-55
2023/07/02 01:17:41;;;;;;;19.65;17.85;;;24.70;1.00;;;;;;5041306;28;20127;-58
2023/07/02 01:20:09;;;;;;;18.30;16.60;;;24.70;1.00;;;;;;5050888;28;20021;-61
2023/07/02 01:22:35;;;;;;;19.35;17.40;;;24.70;1.00;;;;;;5049403;28;20045;-58
2023/07/02 01:25:01;;;;;;;19.70;17.80;;;24.60;1.00;;;;;;5050277;28;20037;-57
2023/07/02 01:27:29;;;;;;;18.23;16.58;;;24.60;1.00;;;;;;5046708;28;20177;-57
2023/07/02 01:29:55;;;;;;;19.48;17.60;;;24.60;1.00;;;;;;5049753;28;20048;-57
2023/07/02 01:32:22;;;;;;;18.58;17.00;;;24.60;1.00;;;;;;5032863;28;20033;-57
2023/07/02 01:34:48;;;;;;;18.15;16.25;;;24.60;1.00;;;;;;5049653;28;20675;-57
2023/07/02 01:37:15;;;;;;;18.15;16.45;;;24.60;1.00;;;;;;5048397;28;20028;-56
2023/07/02 01:39:40;;;;;;;18.77;17.00;;;24.60;1.00;;;;;;5049505;28;20032;-56
2023/07/02 01:42:15;;;;;;;18.42;16.70;;;24.50;1.00;;;;;;5050217;28;20441;-57
2023/07/02 01:44:41;;;;;;;18.52;16.73;;;24.50;1.00;;;;;;5051827;28;20029;-54
2023/07/02 01:47:07;;;;;;;19.10;17.40;;;24.50;1.00;;;;;;5051050;28;20029;-57
2023/07/02 01:49:33;;;;;;;19.17;17.27;;;24.50;1.00;;;;;;5051667;28;20452;-58
2023/07/02 01:51:59;;;;;;;18.67;16.98;;;24.50;1.00;;;;;;5050282;28;20039;-57
2023/07/02 01:54:26;;;;;;;18.20;16.55;;;24.40;1.00;;;;;;5051642;28;20056;-56
2023/07/02 01:56:53;;;;;;;18.35;16.52;;;24.40;1.00;;;;;;5050638;28;20100;-58
2023/07/02 01:59:19;;;;;;;19.95;18.15;;;24.30;1.00;;;;;;5050997;28;20569;-57
2023/07/02 02:01:45;;;;;;;18.70;16.90;;;24.30;1.00;;;;;;5049655;28;20021;-55
2023/07/02 02:04:11;;;;;;;19.50;17.52;;;24.30;1.00;;;;;;5033356;28;20059;-56
2023/07/02 02:06:38;;;;;;;19.55;17.75;;;24.30;1.00;;;;;;5046242;28;20035;-55
2023/07/02 02:09:04;;;;;;;19.45;17.65;;;24.30;1.00;;;;;;5051320;28;20045;-57
2023/07/02 02:11:31;;;;;;;18.75;16.77;;;24.30;1.00;;;;;;5050170;28;20029;-58
2023/07/02 02:13:58;;;;;;;18.60;17.00;;;24.20;1.00;;;;;;5040869;28;20028;-57
2023/07/02 02:16:24;;;;;;;17.77;16.13;;;24.20;1.00;;;;;;5040385;28;20037;-58
2023/07/02 02:18:53;;;;;;;18.88;16.98;;;24.20;1.00;;;;;;5050351;28;20885;-55
2023/07/02 02:21:19;;;;;;;19.25;17.45;;;24.20;1.00;;;;;;5033951;28;20045;-57
2023/07/02 02:23:45;;;;;;;17.55;15.93;;;24.20;1.00;;;;;;5047280;28;20036;-54
2023/07/02 02:26:11;;;;;;;17.50;15.77;;;24.20;1.00;;;;;;5040221;28;20028;-58
2023/07/02 02:28:37;;;;;;;18.17;16.25;;;24.20;1.00;;;;;;5044691;28;20068;-58
2023/07/02 02:31:03;;;;;;;16.52;14.93;;;24.20;1.00;;;;;;5049113;28;20124;-58
2023/07/02 02:33:29;;;;;;;16.60;14.98;;;24.20;1.00;;;;;;5037547;28;20049;-58
2023/07/02 02:35:55;;;;;;;15.80;14.30;;;24.10;1.00;;;;;;5048623;28;20021;-57
2023/07/02 02:38:21;;;;;;;16.67;15.07;;;24.10;1.00;;;;;;5049381;28;20040;-57
2023/07/02 02:40:46;;;;;;;16.13;14.48;;;24.10;1.00;;;;;;5050154;28;20497;-57
2023/07/02 02:43:12;;;;;;;15.80;14.35;;;24.10;1.00;;;;;;5051610;28;20025;-57
2023/07/02 02:45:38;;;;;;;15.40;13.88;;;24.10;1.00;;;;;;5050454;28;20462;-58
2023/07/02 02:48:04;;;;;;;14.85;13.50;;;24.00;1.00;;;;;;5041211;28;20052;-57
2023/07/02 02:50:30;;;;;;;15.93;14.43;;;24.10;1.00;;;;;;5046413;28;20029;-58
2023/07/02 02:52:56;;;;;;;14.30;12.93;;;24.00;1.00;;;;;;5053159;28;20114;-55
2023/07/02 02:55:22;;;;;;;15.50;14.07;;;24.00;1.00;;;;;;5055467;28;20028;-58
2023/07/02 02:57:47;;;;;;;14.50;13.05;;;24.00;1.00;;;;;;5049597;28;20033;-57
2023/07/02 03:00:13;;;;;;;14.65;12.80;;;24.00;1.00;;;;;;5044399;28;20033;-57
2023/07/02 03:02:39;;;;;;;15.02;13.63;;;24.00;1.00;;;;;;5051649;28;20466;-58
2023/07/02 03:05:06;;;;;;;14.98;13.55;;;23.90;1.00;;;;;;5043972;28;20116;-57
2023/07/02 03:07:32;;;;;;;13.75;12.45;;;23.90;1.00;;;;;;5053014;28;20102;-56
2023/07/02 03:09:58;;;;;;;14.80;13.38;;;23.90;1.00;;;;;;5041902;28;20036;-58
2023/07/02 03:12:26;;;;;;;14.18;12.77;;;23.90;1.00;;;;;;5053553;28;20470;-56
2023/07/02 03:14:54;;;;;;;13.38;12.07;;;23.90;1.00;;;;;;5055100;28;20071;-57
2023/07/02 03:17:20;;;;;;;13.48;11.90;;;23.90;1.00;;;;;;5052549;28;20036;-58
2023/07/02 03:19:46;;;;;;;12.73;11.52;;;23.80;1.00;;;;;;5054869;28;20098;-54
2023/07/02 03:22:12;;;;;;;12.82;11.55;;;23.80;1.00;;;;;;5054410;28;20459;-56
2023/07/02 03:24:38;;;;;;;12.45;11.15;;;23.80;1.00;;;;;;5055213;28;20056;-58
2023/07/02 03:27:04;;;;;;;11.45;10.35;;;23.80;1.00;;;;;;5053360;28;20592;-56
2023/07/02 03:29:30;;;;;;;11.18;10.07;;;23.80;1.00;;;;;;5054469;28;20045;-56
2023/07/02 03:31:55;;;;;;;10.73;9.73;;;23.80;1.00;;;;;;5049210;28;20099;-58
2023/07/02 03:34:23;;;;;;;10.88;9.88;;;23.70;1.00;;;;;;5043984;28;20059;-58
2023/07/02 03:36:49;;;;;;;10.20;9.10;;;23.70;1.00;;;;;;5040894;28;20123;-58
2023/07/02 03:39:15;;;;;;;11.10;9.88;;;23.70;1.00;;;;;;5042284;28;20098;-57
2023/07/02 03:41:40;;;;;;;10.23;9.23;;;23.70;1.00;;;;;;5053431;28;20466;-56
2023/07/02 03:44:06;;;;;;;10.38;9.30;;;23.70;1.00;;;;;;5054192;28;20402;-56
2023/07/02 03:46:32;;;;;;;10.52;9.52;;;23.70;1.00;;;;;;5052898;28;20486;-57
2023/07/02 03:48:57;;;;;;;10.98;9.82;;;23.70;1.00;;;;;;5053447;28;20032;-53
2023/07/02 03:51:23;;;;;;;9.90;9.00;;;23.70;1.00;;;;;;5052326;28;20183;-56
2023/07/02 03:53:49;;;;;;;10.35;8.10;;;23.70;1.00;;;;;;5051140;28;20036;-55
2023/07/02 03:56:15;;;;;;;9.25;8.35;;;23.70;1.00;;;;;;5053922;28;20033;-58
2023/07/02 03:58:41;;;;;;;8.98;8.07;;;23.70;1.00;;;;;;5052038;28;20040;-56
2023/07/02 04:01:06;;;;;;;8.50;7.68;;;23.60;1.00;;;;;;5047344;28;20025;-52
2023/07/02 04:03:32;;;;;;;8.73;7.93;;;23.70;1.00;;;;;;5043695;28;20029;-57
2023/07/02 04:05:57;;;;;;;9.65;7.40;;;23.70;1.00;;;;;;5053664;28;20086;-57
2023/07/02 04:08:24;;;;;;;7.35;6.65;;;23.70;1.00;;;;;;5051458;28;20045;-57
2023/07/02 04:10:50;;;;;;;8.45;7.15;;;23.70;1.00;;;;;;5054062;28;20061;-56
2023/07/02 04:13:16;;;;;;;8.45;7.55;;;23.70;1.00;;;;;;5052641;28;20118;-55
2023/07/02 04:15:42;;;;;;;11.50;7.63;;;23.70;1.00;;;;;;5054695;28;20381;-55
2023/07/02 04:18:08;;;;;;;10.27;7.35;;;23.70;1.00;;;;;;5054245;28;20025;-56
2023/07/02 04:20:33;;;;;;;7.85;7.13;;;23.70;1.00;;;;;;5054851;28;20108;-56
2023/07/02 04:22:59;;;;;;;7.90;6.97;;;23.70;1.00;;;;;;5053555;28;20048;-56
2023/07/02 04:25:25;;;;;;;11.20;7.78;;;23.80;1.00;;;;;;5054804;28;20021;-56
2023/07/02 04:27:56;;;;;;;8.52;7.72;;;23.70;1.00;;;;;;5052858;28;20075;-55
2023/07/02 04:30:21;;;;;;;8.95;7.47;;;23.70;1.00;;;;;;5049575;28;20031;-56
2023/07/02 04:32:47;;;;;;;8.48;7.68;;;23.80;1.00;;;;;;5054549;28;20025;-55
2023/07/02 04:35:13;;;;;;;10.52;8.68;;;23.70;1.00;;;;;;5050718;28;20071;-56
2023/07/02 04:37:39;;;;;;;8.18;7.38;;;23.70;1.00;;;;;;5037469;28;20029;-55
2023/07/02 04:40:09;;;;;;;9.60;7.82;;;23.70;1.00;;;;;;5034483;28;20379;-55
2023/07/02 04:42:37;;;;;;;8.27;7.43;;;23.70;1.00;;;;;;5043827;28;20032;-55
2023/07/02 04:45:08;;;;;;;9.18;8.07;;;23.70;1.00;;;;;;5054342;28;20037;-57
2023/07/02 04:47:37;;;;;;;9.65;7.15;;;23.70;1.00;;;;;;5053582;28;20083;-56
2023/07/02 04:50:03;;;;;;;8.48;7.38;;;23.80;1.00;;;;;;5054172;28;20401;-56
2023/07/02 04:52:28;;;;;;;7.35;6.65;;;23.70;1.00;;;;;;5052977;28;20479;-53
2023/07/02 04:54:55;;;;;;;7.95;7.07;;;23.80;1.00;;;;;;5053604;28;20043;-57
2023/07/02 04:57:21;;;;;;;9.23;8.32;;;23.70;1.00;;;;;;5051050;28;20458;-56
2023/07/02 04:59:47;;;;;;;11.10;9.93;;;23.80;1.00;;;;;;5050556;28;20028;-57
2023/07/02 05:02:13;;;;;;;11.45;9.35;;;23.80;1.00;;;;;;5033935;28;20026;-56
2023/07/02 05:04:39;;;;;;;9.88;8.93;;;23.80;1.00;;;;;;5043026;28;20103;-57
2023/07/02 05:07:04;;;;;;;10.63;9.73;;;23.80;1.00;;;;;;5051643;28;20104;-56
2023/07/02 05:09:30;;;;;;;11.63;10.43;;;23.80;1.00;;;;;;5052715;28;20116;-57
2023/07/02 05:11:57;;;;;;;15.20;12.60;;;23.80;1.00;;;;;;5050998;28;20443;-57
2023/07/02 05:14:22;;;;;;;13.95;12.55;;;23.80;1.00;;;;;;5053016;28;20035;-58
2023/07/02 05:16:48;;;;;;;15.02;12.15;;;23.80;1.00;;;;;;5053000;28;20096;-57
2023/07/02 05:19:14;;;;;;;15.05;13.52;;;23.90;1.00;;;;;;5053899;28;20021;-57
2023/07/02 05:21:40;;;;;;;13.43;12.05;;;23.90;1.00;;;;;;5052749;28;20530;-58
2023/07/02 05:24:07;;;;;;;13.70;12.23;;;23.90;1.00;;;;;;5052264;28;20116;-56
2023/07/02 05:26:33;;;;;;;14.20;12.80;;;23.90;1.00;;;;;;5051737;28;20055;-57
2023/07/02 05:28:58;;;;;;;13.57;12.18;;;23.90;1.00;;;;;;5052291;28;20041;-56
2023/07/02 05:31:24;;;;;;;14.15;12.18;;;23.90;1.00;;;;;;5053713;28;20020;-55
2023/07/02 05:33:50;;;;;;;14.95;13.45;;;23.90;1.00;;;;;;5052262;28;20029;-57
2023/07/02 05:36:16;;;;;;;16.10;14.38;;;24.00;1.00;;;;;;5042284;28;20060;-56
2023/07/02 05:38:41;;;;;;;15.73;14.05;;;23.90;1.00;;;;;;5035785;28;20030;-57
2023/07/02 05:41:07;;;;;;;14.48;13.10;;;24.00;1.00;;;;;;5041980;28;20081;-56
2023/07/02 05:43:33;;;;;;;17.00;15.27;;;24.00;1.00;;;;;;5051326;28;20036;-57
2023/07/02 05:46:00;;;;;;;14.88;13.38;;;24.10;1.00;;;;;;5053282;28;20039;-56
2023/07/02 05:48:27;;;;;;;16.73;15.02;;;24.10;1.00;;;;;;5052718;28;20039;-56
2023/07/02 05:50:53;;;;;;;19.35;15.07;;;24.10;1.00;;;;;;5053170;28;20100;-57
2023/07/02 05:53:18;;;;;;;15.50;13.90;;;24.10;1.00;;;;;;5052031;28;20117;-54
2023/07/02 05:55:44;;;;;;;15.98;13.80;;;24.10;1.00;;;;;;5053368;28;20021;-58
2023/07/02 05:58:10;;;;;;;15.43;13.82;;;24.10;1.00;;;;;;5050445;28;20514;-56
2023/07/02 06:00:36;;;;;;;13.35;12.05;;;24.10;1.00;;;;;;5039308;28;20021;-58
2023/07/02 06:03:02;;;;;;;15.70;13.82;;;24.20;1.00;;;;;;5051865;28;20355;-55
2023/07/02 06:05:28;;;;;;;16.38;14.52;;;24.20;1.00;;;;;;5053008;28;20475;-57
2023/07/02 06:07:53;;;;;;;17.83;16.02;;;24.20;1.00;;;;;;5050770;28;20033;-57
2023/07/02 06:10:19;;;;;;;18.73;17.00;;;24.20;1.00;;;;;;5052948;28;20475;-57
2023/07/02 06:12:45;;;;;;;19.48;17.48;;;24.20;1.00;;;;;;5050749;28;20040;-57
2023/07/02 06:15:11;;;;;;;19.13;17.17;;;24.20;1.00;;;;;;5052941;28;20055;-57
2023/07/02 06:17:36;;;;;;;19.52;17.63;;;24.30;1.00;;;;;;5050643;28;20542;-58
2023/07/02 06:20:04;;;;;;;23.10;20.45;;;24.30;1.00;;;;;;5052216;28;20108;-55
2023/07/02 06:22:30;;;;;;;22.95;20.77;;;24.30;1.00;;;;;;5047635;28;20187;-58
2023/07/02 06:24:56;;;;;;;23.60;20.95;;;24.30;1.00;;;;;;5040783;28;20492;-57
2023/07/02 06:27:22;;;;;;;25.38;22.73;;;24.30;1.00;;;;;;5055762;28;20021;-56
2023/07/02 06:29:47;;;;;;;22.25;20.00;;;24.30;1.00;;;;;;5056729;28;20141;-57
2023/07/02 06:32:13;;;;;;;24.33;21.85;;;24.40;1.00;;;;;;5052716;28;20032;-56
2023/07/02 06:34:39;;;;;;;23.75;21.45;;;24.40;1.00;;;;;;5045497;28;20044;-57
2023/07/02 06:37:05;;;;;;;22.65;20.33;;;24.50;1.00;;;;;;5044858;28;20551;-57
2023/07/02 06:39:31;;;;;;;23.80;20.60;;;24.50;1.00;;;;;;5057018;28;20037;-56
2023/07/02 06:41:56;;;;;;;23.58;21.10;;;24.50;1.00;;;;;;5055506;28;20108;-56
2023/07/02 06:44:22;;;;;;;23.98;21.38;;;24.60;1.00;;;;;;5055448;28;20033;-56
2023/07/02 06:46:48;;;;;;;22.98;20.65;;;24.50;1.00;;;;;;5054684;28;20429;-57
2023/07/02 06:49:13;;;;;;;22.83;20.45;;;24.50;1.00;;;;;;5042711;28;20470;-57
2023/07/02 06:51:39;;;;;;;26.10;22.73;;;24.60;1.00;;;;;;5055498;28;20398;-56
2023/07/02 06:54:05;;;;;;;24.02;21.42;;;24.60;1.00;;;;;;5054198;28;20029;-57
2023/07/02 06:56:32;;;;;;;23.88;21.48;;;24.60;1.00;;;;;;5045268;28;20021;-57
2023/07/02 06:58:58;;;;;;;22.92;20.58;;;24.60;1.00;;;;;;5056308;28;20025;-58
2023/07/02 07:01:23;;;;;;;23.48;21.13;;;24.70;1.00;;;;;;5055193;28;20021;-56
2023/07/02 07:03:49;;;;;;;21.77;19.60;;;24.80;1.00;;;;;;5056456;28;20357;-58
2023/07/02 07:06:15;;;;;;;22.20;19.90;;;24.80;1.00;;;;;;5054679;28;20025;-56
2023/07/02 07:08:40;;;;;;;21.55;19.42;;;24.70;1.00;;;;;;5043771;28;20049;-56
2023/07/02 07:11:06;;;;;;;19.67;17.83;;;24.80;1.00;;;;;;5050270;28;20067;-55
2023/07/02 07:13:32;;;;;;;19.27;17.27;;;24.80;1.00;;;;;;5056178;28;20029;-56
2023/07/02 07:15:58;;;;;;;19.48;17.48;;;24.90;1.00;;;;;;5054914;28;20463;-57
2023/07/02 07:18:23;;;;;;;14.00;12.70;;;24.90;1.00;;;;;;5054005;28;20063;-56
2023/07/02 07:20:49;;;;;;;14.38;12.88;;;24.90;1.00;;;;;;5055833;28;20033;-56
2023/07/02 07:23:16;;;;;;;13.25;11.80;;;25.00;1.00;;;;;;5053458;28;20118;-57
2023/07/02 07:25:41;;;;;;;11.55;10.05;;;24.90;1.00;;;;;;5055967;28;20025;-58
2023/07/02 07:28:11;;;;;;;12.07;10.82;;;25.00;1.00;;;;;;5054566;28;20048;-55
2023/07/02 07:30:37;;;;;;;10.82;9.73;;;25.00;1.00;;;;;;5056050;28;20040;-57
2023/07/02 07:33:03;;;;;;;11.68;10.48;;;25.00;1.00;;;;;;5042410;28;20025;-58
2023/07/02 07:35:28;;;;;;;9.85;8.85;;;25.10;1.00;;;;;;5040517;28;20063;-57
2023/07/02 07:37:54;;;;;;;8.95;8.05;;;25.20;1.00;;;;;;5043351;28;20083;-57
2023/07/02 07:40:20;;;;;;;9.32;8.38;;;25.20;1.00;;;;;;5055831;28;20047;-57
2023/07/02 07:42:45;;;;;;;9.25;8.18;;;25.20;1.00;;;;;;5054759;28;20032;-57
2023/07/02 07:45:11;;;;;;;9.13;8.07;;;25.30;1.00;;;;;;5055486;28;20036;-57
2023/07/02 07:47:37;;;;;;;9.65;8.65;;;25.30;1.00;;;;;;5054418;28;20442;-55
2023/07/02 07:50:09;;;;;;;9.90;9.00;;;25.30;1.00;;;;;;5055538;28;20044;-56
2023/07/02 07:52:38;;;;;;;8.38;7.57;;;25.40;1.00;;;;;;5053526;28;20064;-57
2023/07/02 07:55:05;;;;;;;8.18;7.20;;;25.40;1.00;;;;;;5055397;28;20029;-54
2023/07/02 07:57:31;;;;;;;7.65;6.70;;;25.30;1.00;;;;;;5052455;28;20021;-58
2023/07/02 07:59:56;;;;;;;8.02;7.25;;;25.30;1.00;;;;;;5055188;28;20525;-58
2023/07/02 08:02:23;;;;;;;7.32;6.55;;;25.40;1.00;;;;;;5054345;28;20097;-55
2023/07/02 08:04:48;;;;;;;6.57;5.53;;;25.40;1.00;;;;;;5055144;28;20025;-57
2023/07/02 08:07:14;;;;;;;7.30;6.43;;;25.60;1.00;;;;;;5043829;28;20017;-57
2023/07/02 08:09:40;;;;;;;6.15;5.22;;;25.50;1.00;;;;;;5055285;28;20037;-56
2023/07/02 08:12:06;;;;;;;5.15;4.70;;;25.50;1.00;;;;;;5054045;28;20072;-55
2023/07/02 08:14:32;;;;;;;5.82;4.53;;;25.60;1.00;;;;;;5054886;28;20505;-57
2023/07/02 08:16:57;;;;;;;5.88;5.07;;;25.60;1.00;;;;;;5052683;28;20017;-56
2023/07/02 08:19:23;;;;;;;6.80;5.60;;;25.60;99.90;;;;;;5054787;28;20025;-58
2023/07/02 08:21:48;;;;;;;7.20;6.00;;;25.60;1.00;;;;;;5051987;28;20210;-57
2023/07/02 08:24:14;;;;;;;6.88;5.13;;;25.60;1.00;;;;;;5039499;28;20025;-57
2023/07/02 08:26:40;;;;;;;6.50;5.35;;;25.70;99.90;;;;;;5051052;28;20025;-55
2023/07/02 08:29:05;;;;;;;5.68;5.15;;;25.70;99.90;;;;;;5041421;28;20051;-54
2023/07/02 08:31:31;;;;;;;6.25;5.47;;;25.80;1.00;;;;;;5051042;28;20037;-57
2023/07/02 08:33:57;;;;;;;5.63;5.07;;;25.80;1.00;;;;;;5044506;28;20064;-58
2023/07/02 08:36:23;;;;;;;5.60;5.05;;;25.80;1.00;;;;;;5036592;28;20458;-56
2023/07/02 08:38:48;;;;;;;5.35;4.75;;;25.80;99.90;;;;;;5042820;28;20029;-57
2023/07/02 08:41:15;;;;;;;5.88;4.80;;;25.80;99.90;;;;;;5049512;28;20475;-57
2023/07/02 08:43:41;;;;;;;6.60;4.75;;;25.90;99.90;;;;;;5054272;28;20033;-57
2023/07/02 08:46:07;;;;;;;4.97;4.53;;;25.90;99.90;;;;;;5053223;28;20028;-56
2023/07/02 08:48:34;;;;;;;6.43;5.05;;;25.90;99.90;;;;;;5051238;28;20135;-56
2023/07/02 08:51:00;;;;;;;6.00;5.43;;;25.90;99.90;;;;;;5054283;28;20482;-57
2023/07/02 08:53:29;;;;;;;5.45;4.90;;;26.00;99.90;;;;;;5052951;28;20108;-57
2023/07/02 08:55:58;;;;;;;5.70;5.20;;;25.90;99.90;;;;;;5054342;28;20112;-58
2023/07/02 08:58:23;;;;;;;7.78;4.97;;;26.00;99.90;;;;;;5051674;28;20033;-54
2023/07/02 09:01:12;;;;;;;6.00;5.32;;;25.90;99.90;;;;;;5054396;28;20470;-56
2023/07/02 09:03:39;;;;;;;6.88;5.65;;;26.00;99.90;;;;;;5051385;28;20398;-56
2023/07/02 09:06:06;;;;;;;6.07;5.03;;;26.10;99.90;;;;;;5049026;28;20087;-57
2023/07/02 09:08:35;;;;;;;5.65;5.10;;;26.20;99.90;;;;;;5050860;28;20094;-56
2023/07/02 09:11:12;;;;;;;5.57;5.07;;;26.20;99.90;;;;;;5052856;28;20103;-56
2023/07/02 09:13:45;;;;;;;6.13;5.50;;;26.30;99.90;;;;;;5053754;28;20031;-55
2023/07/02 09:16:24;;;;;;;6.90;5.75;;;26.40;99.90;;;;;;5051587;28;20037;-62
2023/07/02 09:19:04;;;;;;;6.95;5.15;;;26.40;99.90;;;;;;5050221;28;20039;-53
2023/07/02 09:21:45;;;;;;;5.60;4.97;;;26.30;99.90;;;;;;5052720;28;20044;-50
2023/07/02 09:24:20;;;;;;;5.97;4.65;;;26.30;99.90;;;;;;5053884;28;20053;-52
2023/07/02 09:26:47;;;;;;;5.53;5.00;;;26.50;99.90;;;;;;5053517;28;20036;-54
2023/07/02 09:29:13;;;;;;;7.00;5.28;;;26.40;99.90;;;;;;5053337;28;20059;-55
2023/07/02 09:31:49;;;;;;;7.13;5.05;;;26.50;99.90;;;;;;5050334;28;20052;-50
2023/07/02 09:34:15;;;;;;;5.13;4.63;;;26.50;99.90;;;;;;5053562;28;20112;-54
2023/07/02 09:36:41;;;;;;;5.60;5.10;;;26.50;99.90;;;;;;5051994;28;20106;-54
2023/07/02 09:39:30;;;;;;;5.18;4.75;;;26.60;99.90;;;;;;5051257;28;20135;-50
2023/07/02 09:41:59;;;;;;;5.25;4.75;;;26.60;99.90;;;;;;5042210;28;20025;-53
2023/07/02 09:44:29;;;;;;;5.75;5.00;;;26.60;99.90;;;;;;5041907;28;20025;-52
2023/07/02 09:47:21;;;;;;;5.32;4.82;;;26.70;99.90;;;;;;5050988;28;20493;-56
2023/07/02 09:49:55;;;;;;;5.53;4.78;;;26.70;99.90;;;;;;5043866;28;20041;-54
2023/07/02 09:52:22;;;;;;;5.95;5.45;;;26.80;99.90;;;;;;5051330;28;20025;-52
2023/07/02 09:54:47;;;;;;;5.10;4.60;;;26.80;99.90;;;;;;5052241;28;20433;-54
2023/07/02 09:57:13;;;;;;;5.43;4.93;;;26.90;99.90;;;;;;5053006;28;20079;-56
2023/07/02 09:59:40;;;;;;;5.72;5.15;;;26.90;99.90;;;;;;5051338;28;20033;-55
2023/07/02 10:02:07;;;;;;;5.35;4.85;;;26.90;99.90;;;;;;5051815;28;20056;-55
2023/07/02 10:04:43;;;;;;;7.05;5.55;;;27.10;99.90;;;;;;5052121;28;20033;-53
2023/07/02 10:07:10;;;;;;;6.55;5.95;;;27.20;99.90;;;;;;5050879;28;20025;-49
2023/07/02 10:09:39;;;;;;;7.72;6.45;;;27.10;99.90;;;;;;5053127;28;20048;-53
2023/07/02 10:12:19;;;;;;;5.65;5.15;;;27.20;99.90;;;;;;5049390;28;20028;-55
2023/07/02 10:14:46;;;;;;;6.20;5.57;;;27.20;99.90;;;;;;5053149;28;20096;-53
2023/07/02 10:17:28;;;;;;;5.72;5.22;;;27.30;99.90;;;;;;5051957;28;20474;-53
2023/07/02 10:19:55;;;;;;;5.07;4.53;;;27.40;99.90;;;;;;5053006;28;20082;-51
2023/07/02 10:22:22;;;;;;;5.97;5.47;;;27.40;99.90;;;;;;5052160;28;20025;-53
2023/07/02 10:25:01;;;;;;;9.70;6.38;;;27.40;99.90;;;;;;5052780;28;20025;-54
2023/07/02 10:27:34;;;;;;;6.97;5.88;;;27.60;99.90;;;;;;5050495;28;20029;-51
2023/07/02 10:30:00;;;;;;;5.57;5.07;;;27.70;99.90;;;;;;5052489;28;20087;-55
2023/07/02 10:32:29;;;;;;;6.55;5.95;;;27.70;99.90;;;;;;5047009;28;20379;-53
2023/07/02 10:35:12;;;;;;;7.07;6.15;;;27.50;99.90;;;;;;5052783;28;20513;-52
2023/07/02 10:37:38;;;;;;;6.68;6.05;;;27.70;99.90;;;;;;5051681;28;20108;-52
2023/07/02 10:40:06;;;;;;;5.78;5.30;;;27.80;99.90;;;;;;5052701;28;20120;-52
2023/07/02 10:42:33;;;;;;;7.55;6.20;;;28.00;99.90;;;;;;5050274;28;20061;-54
2023/07/02 10:44:59;;;;;;;6.65;5.97;;;28.10;99.90;;;;;;5052947;28;20041;-52
2023/07/02 10:47:28;;;;;;;8.98;5.65;;;28.20;99.90;;;;;;5049645;28;20021;-49
2023/07/02 10:49:53;;;;;;;6.47;5.53;;;28.30;99.90;;;;;;5052761;28;20083;-52
2023/07/02 10:52:19;;;;;;;6.03;5.50;;;28.30;99.90;;;;;;5051335;28;20029;-51
2023/07/02 10:54:48;;;;;;;6.97;5.30;;;28.40;99.90;;;;;;5052856;28;20021;-54
2023/07/02 10:57:20;;;;;;;5.30;4.88;;;28.50;99.90;;;;;;5049433;28;20021;-50
2023/07/02 10:59:46;;;;;;;5.53;5.03;;;28.60;99.90;;;;;;5051456;28;20033;-53
2023/07/02 11:02:12;;;;;;;6.07;5.50;;;28.70;99.90;;;;;;5050837;28;20494;-54
2023/07/02 11:04:38;;;;;;;5.82;4.82;;;28.80;99.90;;;;;;5052501;28;20040;-57
2023/07/02 11:07:04;;;;;;;5.72;5.22;;;28.90;99.90;;;;;;5051250;28;20386;-55
2023/07/02 11:09:30;;;;;;;6.20;5.60;;;28.90;99.90;;;;;;5051016;28;20444;-55
2023/07/02 11:12:00;;;;;;;6.60;5.82;;;29.00;99.90;;;;;;5052782;28;20032;-53
2023/07/02 11:14:30;;;;;;;5.15;4.75;;;29.10;99.90;;;;;;5054949;28;20378;-51
2023/07/02 11:17:08;;;;;;;5.68;5.03;;;29.30;99.90;;;;;;5056196;28;20028;-55
2023/07/02 11:19:35;;;;;;;5.93;5.30;;;29.50;99.90;;;;;;5042682;28;20032;-55
2023/07/02 11:22:02;;;;;;;6.43;5.53;;;29.80;99.90;;;;;;5055977;28;20478;-56
2023/07/02 11:24:33;;;;;;;5.10;4.60;;;31.10;99.90;;;;;;5054893;28;20071;-55
2023/07/02 11:27:00;;;;;;;6.03;5.45;;;33.90;99.90;;;;;;5056145;28;20044;-55
2023/07/02 11:29:26;;;;;;;4.82;4.53;;;36.30;99.90;;;;;;5054613;28;20131;-52
2023/07/02 11:31:52;;;;;;;5.72;5.22;;;38.00;99.90;;;;;;5052764;28;20057;-53
2023/07/02 11:34:20;;;;;;;6.05;5.55;;;38.30;99.90;;;;;;5050689;28;20466;-54
2023/07/02 11:36:46;;;;;;;6.65;6.05;;;38.10;99.90;;;;;;5054850;28;20437;-55
2023/07/02 11:39:12;;;;;;;6.50;5.80;;;38.40;99.90;;;;;;5053300;28;20116;-56
2023/07/02 11:41:38;;;;;;;5.47;4.97;;;39.70;99.90;;;;;;5055573;28;20033;-57
2023/07/02 11:44:05;;;;;;;6.40;5.90;;;41.30;99.90;;;;;;5053511;28;20025;-58
2023/07/02 11:46:30;;;;;;;6.15;5.65;;;43.60;99.90;;;;;;5055531;28;20119;-57
2023/07/02 11:48:56;;;;;;;6.00;5.55;;;44.80;99.90;;;;;;5048870;28;20128;-56
2023/07/02 11:51:22;;;;;;;6.63;6.07;;;46.10;99.90;;;;;;5045098;28;20028;-57
2023/07/02 11:53:48;;;;;;;6.25;5.72;;;45.70;99.90;;;;;;5054649;28;20470;-56
2023/07/02 11:56:13;;;;;;;6.53;6.00;;;46.40;99.90;;;;;;5055421;28;20024;-58
2023/07/02 11:58:40;;;;;;;7.15;6.65;;;46.10;99.90;;;;;;5052840;28;20033;-57
2023/07/02 12:01:06;;;;;;;6.78;6.13;;;46.20;99.90;;;;;;5054787;28;20021;-57
2023/07/02 12:03:32;;;;;;;6.32;5.80;;;46.00;99.90;;;;;;5050772;28;20028;-57
2023/07/02 12:05:57;;;;;;;6.72;6.13;;;44.70;99.90;;;;;;5053559;28;20048;-56
2023/07/02 12:08:23;;;;;;;6.60;6.20;;;45.40;99.90;;;;;;5054399;28;20052;-57
2023/07/02 12:10:49;;;;;;;6.53;6.03;;;47.20;99.90;;;;;;5038504;28;20108;-57
2023/07/02 12:13:14;;;;;;;6.80;6.30;;;46.10;99.90;;;;;;5053645;28;20032;-57
2023/07/02 12:15:40;;;;;;;7.22;6.65;;;45.20;99.90;;;;;;5054939;28;20032;-56
2023/07/02 12:18:06;;;;;;;6.72;6.10;;;42.70;99.90;;;;;;5052434;28;20107;-51
2023/07/02 12:20:32;;;;;;;7.50;6.80;;;40.90;99.90;;;;;;5055158;28;20060;-56
2023/07/02 12:26:26;;;;;;;6.80;6.32;;;36.80;99.90;;;;;;5042525;28;20059;-57
2023/07/02 12:28:51;;;;;;;6.07;5.60;;;39.20;99.90;;;;;;5054600;28;20539;-57
2023/07/02 12:31:17;;;;;;;6.15;5.30;;;39.00;99.90;;;;;;5053796;28;20029;-53
2023/07/02 12:33:43;;;;;;;6.00;5.50;;;37.80;99.90;;;;;;5053305;28;20024;-57
2023/07/02 12:36:08;;;;;;;5.70;5.30;;;38.00;99.90;;;;;;5052801;28;20033;-57
2023/07/02 12:38:34;;;;;;;7.13;6.43;;;38.90;99.90;;;;;;5054767;28;20060;-55
2023/07/02 12:41:00;;;;;;;6.10;5.60;;;38.10;99.90;;;;;;5053626;28;20421;-56
2023/07/02 12:43:25;;;;;;;6.80;5.97;;;37.80;99.90;;;;;;5054343;28;20037;-57
2023/07/02 12:45:51;;;;;;;5.57;4.97;;;37.70;99.90;;;;;;5052362;28;21460;-55